sensor_id;sensor_type;location;lat;lon;timestamp;pressure;altitude;pressure_sealevel;temperature;humidity
2397;BME280;1209;48.410;9.054;2023-05-03T00:01:50;96983.19;;;8.94;100.00
2397;BME280;1209;48.410;9.054;2023-05-03T00:04:16;96976.31;;;9.03;100.00
2397;BME280;1209;48.410;9.054;2023-05-03T00:06:42;96974.06;;;8.63;100.00
2397;BME280;1209;48.410;9.054;2023-05-03T00:09:08;96971.06;;;8.85;100.00
2397;BME280;1209;48.410;9.054;2023-05-03T00:11:35;96973.00;;;8.83;100.00
2397;BME280;1209;48.410;9.054;2023-05-03T00:14:00;96971.97;;;8.94;100.00
2397;BME280;1209;48.410;9.054;2023-05-03T00:16:25;96968.91;;;8.80;100.00
2397;BME280;1209;48.410;9.054;2023-05-03T00:18:51;96974.88;;;8.91;100.00
2397;BME280;1209;48.410;9.054;2023-05-03T00:21:16;96979.22;;;9.00;100.00
2397;BME280;1209;48.410;9.054;2023-05-03T00:23:41;96984.84;;;8.95;100.00
2397;BME280;1209;48.410;9.054;2023-05-03T00:26:06;96968.66;;;9.01;100.00
2397;BME280;1209;48.410;9.054;2023-05-03T00:28:32;96974.28;;;8.97;100.00
2397;BME280;1209;48.410;9.054;2023-05-03T00:31:05;96972.41;;;8.89;100.00
2397;BME280;1209;48.410;9.054;2023-05-03T00:33:31;96977.88;;;8.68;100.00
2397;BME280;1209;48.410;9.054;2023-05-03T00:35:56;96974.31;;;8.69;100.00
2397;BME280;1209;48.410;9.054;2023-05-03T00:38:21;96972.09;;;8.74;100.00
2397;BME280;1209;48.410;9.054;2023-05-03T00:40:53;96973.06;;;8.36;100.00
2397;BME280;1209;48.410;9.054;2023-05-03T00:43:18;96966.31;;;8.53;100.00
2397;BME280;1209;48.410;9.054;2023-05-03T00:45:44;96969.81;;;8.34;100.00
2397;BME280;1209;48.410;9.054;2023-05-03T00:48:11;96970.69;;;8.52;100.00
2397;BME280;1209;48.410;9.054;2023-05-03T00:50:37;96968.63;;;8.56;100.00
2397;BME280;1209;48.410;9.054;2023-05-03T00:53:03;96966.56;;;8.60;100.00
2397;BME280;1209;48.410;9.054;2023-05-03T00:55:29;96967.59;;;8.67;100.00
2397;BME280;1209;48.410;9.054;2023-05-03T00:57:56;96963.72;;;8.43;100.00
2397;BME280;1209;48.410;9.054;2023-05-03T01:00:22;96966.03;;;8.56;100.00
2397;BME280;1209;48.410;9.054;2023-05-03T01:02:48;96965.47;;;8.15;100.00
2397;BME280;1209;48.410;9.054;2023-05-03T01:05:14;96972.25;;;8.36;100.00
2397;BME280;1209;48.410;9.054;2023-05-03T01:07:55;96972.88;;;8.10;100.00
2397;BME280;1209;48.410;9.054;2023-05-03T01:13:06;96970.13;;;8.02;100.00
2397;BME280;1209;48.410;9.054;2023-05-03T01:15:38;96964.41;;;7.99;100.00
2397;BME280;1209;48.410;9.054;2023-05-03T01:18:29;96963.16;;;8.12;100.00
2397;BME280;1209;48.410;9.054;2023-05-03T01:20:58;96958.28;;;8.37;100.00
2397;BME280;1209;48.410;9.054;2023-05-03T01:23:42;96955.19;;;8.14;100.00
2397;BME280;1209;48.410;9.054;2023-05-03T01:28:41;96947.44;;;7.95;100.00
2397;BME280;1209;48.410;9.054;2023-05-03T01:31:07;96952.06;;;8.10;100.00
2397;BME280;1209;48.410;9.054;2023-05-03T01:36:29;96948.38;;;8.03;100.00
2397;BME280;1209;48.410;9.054;2023-05-03T01:39:06;96940.47;;;7.85;100.00
2397;BME280;1209;48.410;9.054;2023-05-03T01:41:36;96938.66;;;8.05;100.00
2397;BME280;1209;48.410;9.054;2023-05-03T01:44:03;96937.56;;;8.08;100.00
2397;BME280;1209;48.410;9.054;2023-05-03T01:46:29;96941.13;;;7.97;100.00
2397;BME280;1209;48.410;9.054;2023-05-03T01:48:54;96943.91;;;7.86;100.00
2397;BME280;1209;48.410;9.054;2023-05-03T01:51:19;96942.44;;;7.64;100.00
2397;BME280;1209;48.410;9.054;2023-05-03T01:53:45;96947.50;;;7.56;100.00
2397;BME280;1209;48.410;9.054;2023-05-03T01:56:10;96936.81;;;7.78;100.00
2397;BME280;1209;48.410;9.054;2023-05-03T01:58:35;96942.66;;;7.90;100.00
2397;BME280;1209;48.410;9.054;2023-05-03T02:01:03;96929.81;;;7.88;100.00
2397;BME280;1209;48.410;9.054;2023-05-03T02:03:29;96931.31;;;7.81;100.00
2397;BME280;1209;48.410;9.054;2023-05-03T02:05:54;96934.09;;;7.70;100.00
2397;BME280;1209;48.410;9.054;2023-05-03T02:08:20;96939.00;;;7.73;100.00
2397;BME280;1209;48.410;9.054;2023-05-03T02:10:45;96941.59;;;7.83;100.00
2397;BME280;1209;48.410;9.054;2023-05-03T02:13:10;96945.06;;;7.64;100.00
2397;BME280;1209;48.410;9.054;2023-05-03T02:15:35;96938.47;;;7.70;100.00
2397;BME280;1209;48.410;9.054;2023-05-03T02:18:01;96939.28;;;7.70;100.00
2397;BME280;1209;48.410;9.054;2023-05-03T02:20:27;96943.13;;;7.66;100.00
2397;BME280;1209;48.410;9.054;2023-05-03T02:22:52;96943.97;;;7.47;100.00
2397;BME280;1209;48.410;9.054;2023-05-03T02:25:17;96933.56;;;7.47;100.00
2397;BME280;1209;48.410;9.054;2023-05-03T02:27:42;96936.84;;;7.49;100.00
2397;BME280;1209;48.410;9.054;2023-05-03T02:30:08;96928.63;;;7.54;100.00
2397;BME280;1209;48.410;9.054;2023-05-03T02:32:33;96937.81;;;7.48;100.00
2397;BME280;1209;48.410;9.054;2023-05-03T02:34:58;96940.25;;;7.50;100.00
2397;BME280;1209;48.410;9.054;2023-05-03T02:37:24;96933.81;;;7.54;100.00
2397;BME280;1209;48.410;9.054;2023-05-03T02:39:49;96931.53;;;7.32;100.00
2397;BME280;1209;48.410;9.054;2023-05-03T02:42:15;96928.13;;;7.31;100.00
2397;BME280;1209;48.410;9.054;2023-05-03T02:44:40;96923.88;;;7.30;100.00
2397;BME280;1209;48.410;9.054;2023-05-03T02:47:05;96922.78;;;7.33;100.00
2397;BME280;1209;48.410;9.054;2023-05-03T02:49:31;96929.75;;;7.32;100.00
2397;BME280;1209;48.410;9.054;2023-05-03T02:51:56;96931.38;;;7.43;100.00
2397;BME280;1209;48.410;9.054;2023-05-03T02:54:22;96933.03;;;7.44;100.00
2397;BME280;1209;48.410;9.054;2023-05-03T02:56:47;96931.81;;;7.29;100.00
2397;BME280;1209;48.410;9.054;2023-05-03T02:59:13;96931.00;;;7.28;100.00
2397;BME280;1209;48.410;9.054;2023-05-03T03:01:38;96938.09;;;7.16;100.00
2397;BME280;1209;48.410;9.054;2023-05-03T03:04:04;96931.53;;;7.22;100.00
2397;BME280;1209;48.410;9.054;2023-05-03T03:06:30;96933.88;;;7.25;100.00
2397;BME280;1209;48.410;9.054;2023-05-03T03:08:55;96931.13;;;7.36;100.00
2397;BME280;1209;48.410;9.054;2023-05-03T03:11:20;96934.66;;;7.45;100.00
2397;BME280;1209;48.410;9.054;2023-05-03T03:13:46;96918.81;;;7.29;100.00
2397;BME280;1209;48.410;9.054;2023-05-03T03:16:12;96932.75;;;6.89;100.00
2397;BME280;1209;48.410;9.054;2023-05-03T03:18:37;96928.38;;;6.80;100.00
2397;BME280;1209;48.410;9.054;2023-05-03T03:21:03;96923.72;;;7.03;100.00
2397;BME280;1209;48.410;9.054;2023-05-03T03:23:28;96921.28;;;7.11;100.00
2397;BME280;1209;48.410;9.054;2023-05-03T03:25:54;96922.09;;;7.21;100.00
2397;BME280;1209;48.410;9.054;2023-05-03T03:28:19;96923.06;;;7.20;100.00
2397;BME280;1209;48.410;9.054;2023-05-03T03:30:45;96916.63;;;7.24;100.00
2397;BME280;1209;48.410;9.054;2023-05-03T03:33:10;96933.69;;;7.07;100.00
2397;BME280;1209;48.410;9.054;2023-05-03T03:35:36;96932.91;;;7.16;100.00
2397;BME280;1209;48.410;9.054;2023-05-03T03:38:02;96932.91;;;7.16;100.00
2397;BME280;1209;48.410;9.054;2023-05-03T03:40:28;96926.91;;;7.16;100.00
2397;BME280;1209;48.410;9.054;2023-05-03T03:42:53;96929.50;;;7.16;100.00
2397;BME280;1209;48.410;9.054;2023-05-03T03:45:18;96926.50;;;7.11;100.00
2397;BME280;1209;48.410;9.054;2023-05-03T03:47:44;96925.53;;;7.12;100.00
2397;BME280;1209;48.410;9.054;2023-05-03T03:50:09;96927.16;;;7.13;100.00
2397;BME280;1209;48.410;9.054;2023-05-03T03:52:35;96928.91;;;7.03;100.00
2397;BME280;1209;48.410;9.054;2023-05-03T03:55:00;96934.09;;;6.93;100.00
2397;BME280;1209;48.410;9.054;2023-05-03T03:57:25;96927.81;;;6.95;100.00
2397;BME280;1209;48.410;9.054;2023-05-03T03:59:55;96933.44;;;7.01;100.00
2397;BME280;1209;48.410;9.054;2023-05-03T04:02:20;96935.88;;;7.02;100.00
2397;BME280;1209;48.410;9.054;2023-05-03T04:04:45;96940.53;;;6.99;100.00
2397;BME280;1209;48.410;9.054;2023-05-03T04:07:11;96946.41;;;6.81;100.00
2397;BME280;1209;48.410;9.054;2023-05-03T04:09:36;96952.84;;;6.97;100.00
2397;BME280;1209;48.410;9.054;2023-05-03T04:12:02;96945.47;;;7.02;100.00
2397;BME280;1209;48.410;9.054;2023-05-03T04:14:27;96955.16;;;7.00;100.00
2397;BME280;1209;48.410;9.054;2023-05-03T04:16:52;96962.66;;;6.93;100.00
2397;BME280;1209;48.410;9.054;2023-05-03T04:19:18;96962.25;;;6.98;100.00
2397;BME280;1209;48.410;9.054;2023-05-03T04:21:46;96953.25;;;7.02;100.00
2397;BME280;1209;48.410;9.054;2023-05-03T04:24:15;96953.25;;;6.92;100.00
2397;BME280;1209;48.410;9.054;2023-05-03T04:26:41;96962.25;;;6.88;100.00
2397;BME280;1209;48.410;9.054;2023-05-03T04:29:06;96964.56;;;6.81;100.00
2397;BME280;1209;48.410;9.054;2023-05-03T04:31:32;96955.69;;;6.93;100.00
2397;BME280;1209;48.410;9.054;2023-05-03T04:33:57;96971.25;;;6.74;100.00
2397;BME280;1209;48.410;9.054;2023-05-03T04:36:22;96974.38;;;6.68;100.00
2397;BME280;1209;48.410;9.054;2023-05-03T04:38:51;96980.00;;;6.83;100.00
2397;BME280;1209;48.410;9.054;2023-05-03T04:41:16;96973.88;;;7.03;100.00
2397;BME280;1209;48.410;9.054;2023-05-03T04:43:41;96977.19;;;7.15;100.00
2397;BME280;1209;48.410;9.054;2023-05-03T04:46:07;96984.19;;;7.24;100.00
2397;BME280;1209;48.410;9.054;2023-05-03T04:48:33;96989.09;;;7.37;100.00
2397;BME280;1209;48.410;9.054;2023-05-03T04:51:00;96989.38;;;7.43;100.00
2397;BME280;1209;48.410;9.054;2023-05-03T04:53:26;96987.31;;;7.47;100.00
2397;BME280;1209;48.410;9.054;2023-05-03T04:55:51;96989.91;;;7.56;100.00
2397;BME280;1209;48.410;9.054;2023-05-03T04:58:16;96987.31;;;7.66;100.00
2397;BME280;1209;48.410;9.054;2023-05-03T05:00:44;96987.88;;;7.70;100.00
2397;BME280;1209;48.410;9.054;2023-05-03T05:03:09;96985.13;;;7.71;100.00
2397;BME280;1209;48.410;9.054;2023-05-03T05:05:35;96990.59;;;7.78;100.00
2397;BME280;1209;48.410;9.054;2023-05-03T05:08:00;96991.38;;;7.88;100.00
2397;BME280;1209;48.410;9.054;2023-05-03T05:10:25;96986.03;;;7.89;100.00
2397;BME280;1209;48.410;9.054;2023-05-03T05:12:51;96983.69;;;7.96;100.00
2397;BME280;1209;48.410;9.054;2023-05-03T05:15:16;96987.69;;;7.90;100.00
2397;BME280;1209;48.410;9.054;2023-05-03T05:17:41;96994.25;;;7.85;100.00
2397;BME280;1209;48.410;9.054;2023-05-03T05:20:07;96988.38;;;7.93;100.00
2397;BME280;1209;48.410;9.054;2023-05-03T05:22:39;96989.91;;;7.66;100.00
2397;BME280;1209;48.410;9.054;2023-05-03T05:25:05;96995.63;;;7.89;100.00
2397;BME280;1209;48.410;9.054;2023-05-03T05:27:31;96998.09;;;7.81;100.00
2397;BME280;1209;48.410;9.054;2023-05-03T05:29:56;97002.31;;;8.01;100.00
2397;BME280;1209;48.410;9.054;2023-05-03T05:32:22;96993.69;;;8.10;100.00
2397;BME280;1209;48.410;9.054;2023-05-03T05:34:47;97002.03;;;8.14;100.00
2397;BME280;1209;48.410;9.054;2023-05-03T05:37:19;96996.78;;;8.24;100.00
2397;BME280;1209;48.410;9.054;2023-05-03T05:39:44;97002.66;;;8.26;100.00
2397;BME280;1209;48.410;9.054;2023-05-03T05:42:09;97003.75;;;8.33;100.00
2397;BME280;1209;48.410;9.054;2023-05-03T05:44:35;97008.41;;;8.29;100.00
2397;BME280;1209;48.410;9.054;2023-05-03T05:47:00;97008.94;;;8.33;100.00
2397;BME280;1209;48.410;9.054;2023-05-03T05:49:25;97005.50;;;8.42;100.00
2397;BME280;1209;48.410;9.054;2023-05-03T05:51:50;97008.78;;;8.44;100.00
2397;BME280;1209;48.410;9.054;2023-05-03T05:54:16;97006.34;;;8.42;100.00
2397;BME280;1209;48.410;9.054;2023-05-03T05:56:41;97010.38;;;8.64;100.00
2397;BME280;1209;48.410;9.054;2023-05-03T05:59:06;96999.88;;;8.46;100.00
2397;BME280;1209;48.410;9.054;2023-05-03T06:01:31;96998.38;;;8.54;100.00
2397;BME280;1209;48.410;9.054;2023-05-03T06:03:58;97001.94;;;8.52;100.00
2397;BME280;1209;48.410;9.054;2023-05-03T06:06:23;96998.63;;;8.50;100.00
2397;BME280;1209;48.410;9.054;2023-05-03T06:08:49;96996.97;;;8.59;100.00
2397;BME280;1209;48.410;9.054;2023-05-03T06:11:15;96996.94;;;8.69;100.00
2397;BME280;1209;48.410;9.054;2023-05-03T06:13:41;96992.47;;;8.79;100.00
2397;BME280;1209;48.410;9.054;2023-05-03T06:16:06;96986.13;;;8.64;100.00
2397;BME280;1209;48.410;9.054;2023-05-03T06:18:32;96981.59;;;8.66;100.00
2397;BME280;1209;48.410;9.054;2023-05-03T06:20:57;96987.66;;;8.84;100.00
2397;BME280;1209;48.410;9.054;2023-05-03T06:23:22;96983.03;;;8.78;100.00
2397;BME280;1209;48.410;9.054;2023-05-03T06:25:47;96982.81;;;8.89;100.00
2397;BME280;1209;48.410;9.054;2023-05-03T06:28:13;96982.28;;;8.86;100.00
2397;BME280;1209;48.410;9.054;2023-05-03T06:30:38;96986.75;;;9.03;100.00
2397;BME280;1209;48.410;9.054;2023-05-03T06:33:03;96988.91;;;9.07;100.00
2397;BME280;1209;48.410;9.054;2023-05-03T06:35:30;96984.38;;;9.09;100.00
2397;BME280;1209;48.410;9.054;2023-05-03T06:37:56;96982.44;;;9.29;100.00
2397;BME280;1209;48.410;9.054;2023-05-03T06:40:21;96984.06;;;9.30;100.00
2397;BME280;1209;48.410;9.054;2023-05-03T06:42:49;96993.81;;;9.28;100.00
2397;BME280;1209;48.410;9.054;2023-05-03T06:45:15;96985.41;;;9.17;100.00
2397;BME280;1209;48.410;9.054;2023-05-03T06:47:40;96985.72;;;9.31;100.00
2397;BME280;1209;48.410;9.054;2023-05-03T06:50:07;96986.22;;;9.35;100.00
2397;BME280;1209;48.410;9.054;2023-05-03T06:52:32;96983.91;;;9.67;100.00
2397;BME280;1209;48.410;9.054;2023-05-03T06:54:58;96980.31;;;9.86;100.00
2397;BME280;1209;48.410;9.054;2023-05-03T06:57:23;96982.75;;;9.88;100.00
2397;BME280;1209;48.410;9.054;2023-05-03T06:59:49;96977.56;;;10.14;100.00
2397;BME280;1209;48.410;9.054;2023-05-03T07:02:14;96979.81;;;10.34;100.00
2397;BME280;1209;48.410;9.054;2023-05-03T07:04:40;96982.66;;;10.41;100.00
2397;BME280;1209;48.410;9.054;2023-05-03T07:07:05;96990.78;;;10.38;100.00
2397;BME280;1209;48.410;9.054;2023-05-03T07:09:30;96990.06;;;10.54;100.00
2397;BME280;1209;48.410;9.054;2023-05-03T07:11:56;96985.50;;;10.56;100.00
2397;BME280;1209;48.410;9.054;2023-05-03T07:14:21;96987.94;;;10.57;100.00
2397;BME280;1209;48.410;9.054;2023-05-03T07:16:47;96979.91;;;10.43;100.00
2397;BME280;1209;48.410;9.054;2023-05-03T07:19:12;96985.63;;;10.46;100.00
2397;BME280;1209;48.410;9.054;2023-05-03T07:21:37;96982.13;;;10.37;100.00
2397;BME280;1209;48.410;9.054;2023-05-03T07:24:03;96978.25;;;10.42;100.00
2397;BME280;1209;48.410;9.054;2023-05-03T07:26:29;96977.47;;;10.23;100.00
2397;BME280;1209;48.410;9.054;2023-05-03T07:28:54;96976.91;;;10.12;100.00
2397;BME280;1209;48.410;9.054;2023-05-03T07:31:22;96981.16;;;10.13;100.00
2397;BME280;1209;48.410;9.054;2023-05-03T07:33:49;96978.53;;;10.38;100.00
2397;BME280;1209;48.410;9.054;2023-05-03T07:36:14;96968.63;;;10.42;100.00
2397;BME280;1209;48.410;9.054;2023-05-03T07:38:39;96970.63;;;10.48;100.00
2397;BME280;1209;48.410;9.054;2023-05-03T07:41:05;96973.66;;;10.18;100.00
2397;BME280;1209;48.410;9.054;2023-05-03T07:43:30;96974.94;;;10.39;100.00
2397;BME280;1209;48.410;9.054;2023-05-03T07:45:56;96970.47;;;10.50;100.00
2397;BME280;1209;48.410;9.054;2023-05-03T07:48:21;96971.84;;;10.36;100.00
2397;BME280;1209;48.410;9.054;2023-05-03T07:50:46;96966.94;;;10.33;100.00
2397;BME280;1209;48.410;9.054;2023-05-03T07:53:13;96970.81;;;10.29;100.00
2397;BME280;1209;48.410;9.054;2023-05-03T07:55:38;96963.91;;;10.46;100.00
2397;BME280;1209;48.410;9.054;2023-05-03T07:58:03;96968.69;;;10.58;100.00
2397;BME280;1209;48.410;9.054;2023-05-03T08:00:29;96965.44;;;10.64;100.00
2397;BME280;1209;48.410;9.054;2023-05-03T08:02:55;96962.47;;;10.51;100.00
2397;BME280;1209;48.410;9.054;2023-05-03T08:05:21;96959.66;;;10.45;100.00
2397;BME280;1209;48.410;9.054;2023-05-03T08:07:47;96964.66;;;10.72;100.00
2397;BME280;1209;48.410;9.054;2023-05-03T08:10:13;96965.00;;;10.77;100.00
2397;BME280;1209;48.410;9.054;2023-05-03T08:12:38;96969.13;;;10.88;100.00
2397;BME280;1209;48.410;9.054;2023-05-03T08:15:04;96973.06;;;10.92;100.00
2397;BME280;1209;48.410;9.054;2023-05-03T08:17:31;96965.19;;;10.84;100.00
2397;BME280;1209;48.410;9.054;2023-05-03T08:19:56;96963.75;;;10.89;100.00
2397;BME280;1209;48.410;9.054;2023-05-03T08:22:22;96963.06;;;10.87;100.00
2397;BME280;1209;48.410;9.054;2023-05-03T08:24:49;96958.66;;;10.88;100.00
2397;BME280;1209;48.410;9.054;2023-05-03T08:27:14;96966.25;;;11.15;100.00
2397;BME280;1209;48.410;9.054;2023-05-03T08:29:40;96968.72;;;11.33;100.00
2397;BME280;1209;48.410;9.054;2023-05-03T08:32:05;96970.56;;;11.41;100.00
2397;BME280;1209;48.410;9.054;2023-05-03T08:34:31;96972.53;;;11.39;100.00
2397;BME280;1209;48.410;9.054;2023-05-03T08:36:57;96969.88;;;11.30;100.00
2397;BME280;1209;48.410;9.054;2023-05-03T08:39:23;96966.63;;;11.69;100.00
2397;BME280;1209;48.410;9.054;2023-05-03T08:41:54;96965.81;;;12.09;100.00
2397;BME280;1209;48.410;9.054;2023-05-03T08:44:21;96962.66;;;12.38;100.00
2397;BME280;1209;48.410;9.054;2023-05-03T08:46:47;96978.28;;;12.63;100.00
2397;BME280;1209;48.410;9.054;2023-05-03T08:49:13;96972.28;;;12.46;100.00
2397;BME280;1209;48.410;9.054;2023-05-03T08:51:39;96967.59;;;12.25;100.00
2397;BME280;1209;48.410;9.054;2023-05-03T08:54:06;96976.09;;;12.19;100.00
2397;BME280;1209;48.410;9.054;2023-05-03T08:56:32;96970.84;;;12.27;100.00
2397;BME280;1209;48.410;9.054;2023-05-03T08:59:04;96966.47;;;12.67;100.00
2397;BME280;1209;48.410;9.054;2023-05-03T09:01:34;96971.19;;;13.64;100.00
2397;BME280;1209;48.410;9.054;2023-05-03T09:04:00;96972.66;;;13.67;100.00
2397;BME280;1209;48.410;9.054;2023-05-03T09:06:26;96972.19;;;14.01;100.00
2397;BME280;1209;48.410;9.054;2023-05-03T09:08:52;96975.78;;;13.85;100.00
2397;BME280;1209;48.410;9.054;2023-05-03T09:11:27;96973.66;;;14.18;100.00
2397;BME280;1209;48.410;9.054;2023-05-03T09:13:54;96963.88;;;13.97;100.00
2397;BME280;1209;48.410;9.054;2023-05-03T09:16:31;96967.91;;;14.23;100.00
2397;BME280;1209;48.410;9.054;2023-05-03T09:19:01;96969.31;;;13.96;100.00
2397;BME280;1209;48.410;9.054;2023-05-03T09:21:27;96968.13;;;14.13;100.00
2397;BME280;1209;48.410;9.054;2023-05-03T09:23:53;96968.44;;;14.33;100.00
2397;BME280;1209;48.410;9.054;2023-05-03T09:26:34;96968.75;;;14.82;100.00
2397;BME280;1209;48.410;9.054;2023-05-03T09:29:02;96971.41;;;15.18;100.00
2397;BME280;1209;48.410;9.054;2023-05-03T09:31:28;96978.56;;;15.46;100.00
2397;BME280;1209;48.410;9.054;2023-05-03T09:33:55;96972.72;;;15.65;100.00
2397;BME280;1209;48.410;9.054;2023-05-03T09:36:20;96971.16;;;15.70;100.00
2397;BME280;1209;48.410;9.054;2023-05-03T09:38:46;96957.81;;;15.72;100.00
2397;BME280;1209;48.410;9.054;2023-05-03T09:41:11;96950.84;;;16.14;100.00
2397;BME280;1209;48.410;9.054;2023-05-03T09:43:50;96951.53;;;16.01;100.00
2397;BME280;1209;48.410;9.054;2023-05-03T09:46:17;96948.31;;;16.05;100.00
2397;BME280;1209;48.410;9.054;2023-05-03T09:48:43;96949.81;;;16.49;100.00
2397;BME280;1209;48.410;9.054;2023-05-03T09:51:10;96949.25;;;16.54;100.00
2397;BME280;1209;48.410;9.054;2023-05-03T09:53:37;96942.13;;;16.48;100.00
2397;BME280;1209;48.410;9.054;2023-05-03T09:56:04;96941.72;;;16.85;100.00
2397;BME280;1209;48.410;9.054;2023-05-03T09:58:31;96943.88;;;17.23;100.00
2397;BME280;1209;48.410;9.054;2023-05-03T10:00:59;96936.84;;;17.56;100.00
2397;BME280;1209;48.410;9.054;2023-05-03T10:03:31;96938.50;;;16.90;100.00
2397;BME280;1209;48.410;9.054;2023-05-03T10:06:01;96949.78;;;17.31;100.00
2397;BME280;1209;48.410;9.054;2023-05-03T10:08:39;96938.03;;;17.47;100.00
2397;BME280;1209;48.410;9.054;2023-05-03T10:11:07;96933.97;;;17.45;100.00
2397;BME280;1209;48.410;9.054;2023-05-03T10:13:33;96940.50;;;17.55;100.00
2397;BME280;1209;48.410;9.054;2023-05-03T10:16:05;96931.53;;;16.69;100.00
2397;BME280;1209;48.410;9.054;2023-05-03T10:18:33;96930.78;;;16.95;100.00
2397;BME280;1209;48.410;9.054;2023-05-03T10:21:06;96920.72;;;16.64;100.00
2397;BME280;1209;48.410;9.054;2023-05-03T10:23:33;96923.06;;;16.52;100.00
2397;BME280;1209;48.410;9.054;2023-05-03T10:26:12;96927.03;;;17.24;100.00
2397;BME280;1209;48.410;9.054;2023-05-03T10:28:37;96917.75;;;17.54;100.00
2397;BME280;1209;48.410;9.054;2023-05-03T10:31:03;96914.13;;;18.08;100.00
2397;BME280;1209;48.410;9.054;2023-05-03T10:33:30;96911.16;;;18.56;100.00
2397;BME280;1209;48.410;9.054;2023-05-03T10:35:57;96918.16;;;18.17;100.00
2397;BME280;1209;48.410;9.054;2023-05-03T10:38:27;96923.47;;;18.17;100.00
2397;BME280;1209;48.410;9.054;2023-05-03T10:40:54;96918.78;;;17.60;100.00
2397;BME280;1209;48.410;9.054;2023-05-03T10:45:59;96905.13;;;18.29;100.00
2397;BME280;1209;48.410;9.054;2023-05-03T10:48:25;96911.22;;;18.30;100.00
2397;BME280;1209;48.410;9.054;2023-05-03T10:50:51;96913.31;;;18.92;96.63
2397;BME280;1209;48.410;9.054;2023-05-03T10:53:36;96909.38;;;19.39;91.83
2397;BME280;1209;48.410;9.054;2023-05-03T10:56:12;96898.31;;;19.49;92.15
2397;BME280;1209;48.410;9.054;2023-05-03T10:58:49;96899.84;;;19.63;88.58
2397;BME280;1209;48.410;9.054;2023-05-03T11:01:16;96895.84;;;19.16;93.82
2397;BME280;1209;48.410;9.054;2023-05-03T11:06:39;96898.19;;;18.35;97.28
2397;BME280;1209;48.410;9.054;2023-05-03T11:09:09;96887.69;;;18.02;99.11
2397;BME280;1209;48.410;9.054;2023-05-03T11:11:39;96890.03;;;18.36;92.39
2397;BME280;1209;48.410;9.054;2023-05-03T11:14:06;96895.34;;;18.30;92.84
2397;BME280;1209;48.410;9.054;2023-05-03T11:16:33;96876.03;;;18.94;93.16
2397;BME280;1209;48.410;9.054;2023-05-03T11:19:00;96886.88;;;18.79;95.02
2397;BME280;1209;48.410;9.054;2023-05-03T11:21:25;96882.91;;;18.37;95.68
2397;BME280;1209;48.410;9.054;2023-05-03T11:23:51;96879.91;;;18.27;94.96
2397;BME280;1209;48.410;9.054;2023-05-03T11:26:16;96869.78;;;18.04;100.00
2397;BME280;1209;48.410;9.054;2023-05-03T11:28:43;96872.84;;;17.54;100.00
2397;BME280;1209;48.410;9.054;2023-05-03T11:31:10;96867.78;;;17.73;96.18
2397;BME280;1209;48.410;9.054;2023-05-03T11:33:37;96862.31;;;17.68;100.00
2397;BME280;1209;48.410;9.054;2023-05-03T11:36:03;96860.97;;;18.87;95.73
2397;BME280;1209;48.410;9.054;2023-05-03T11:38:33;96852.44;;;19.48;85.55
2397;BME280;1209;48.410;9.054;2023-05-03T11:40:59;96848.16;;;19.23;87.49
2397;BME280;1209;48.410;9.054;2023-05-03T11:43:26;96856.72;;;19.49;89.45
2397;BME280;1209;48.410;9.054;2023-05-03T11:45:55;96852.63;;;19.22;90.83
2397;BME280;1209;48.410;9.054;2023-05-03T11:48:21;96848.00;;;20.35;88.01
2397;BME280;1209;48.410;9.054;2023-05-03T11:50:49;96843.06;;;19.53;87.13
2397;BME280;1209;48.410;9.054;2023-05-03T11:53:24;96840.91;;;19.68;82.41
2397;BME280;1209;48.410;9.054;2023-05-03T11:55:52;96845.50;;;20.40;86.00
2397;BME280;1209;48.410;9.054;2023-05-03T11:58:25;96845.22;;;21.09;73.42
2397;BME280;1209;48.410;9.054;2023-05-03T12:00:52;96840.03;;;21.02;72.65
2397;BME280;1209;48.410;9.054;2023-05-03T12:03:20;96844.69;;;20.58;78.79
2397;BME280;1209;48.410;9.054;2023-05-03T12:05:47;96848.56;;;20.01;81.76
2397;BME280;1209;48.410;9.054;2023-05-03T12:08:12;96846.16;;;20.36;79.58
2397;BME280;1209;48.410;9.054;2023-05-03T12:10:39;96844.81;;;19.84;81.61
2397;BME280;1209;48.410;9.054;2023-05-03T12:13:05;96842.47;;;20.37;83.54
2397;BME280;1209;48.410;9.054;2023-05-03T12:15:34;96831.50;;;21.12;77.88
2397;BME280;1209;48.410;9.054;2023-05-03T12:18:07;96832.84;;;20.42;76.76
2397;BME280;1209;48.410;9.054;2023-05-03T12:20:37;96827.13;;;19.59;75.74
2397;BME280;1209;48.410;9.054;2023-05-03T12:23:04;96827.88;;;19.85;75.83
2397;BME280;1209;48.410;9.054;2023-05-03T12:25:32;96822.78;;;20.63;73.55
2397;BME280;1209;48.410;9.054;2023-05-03T12:28:00;96817.91;;;20.23;73.54
2397;BME280;1209;48.410;9.054;2023-05-03T12:30:26;96818.50;;;19.64;76.55
2397;BME280;1209;48.410;9.054;2023-05-03T12:32:52;96822.63;;;19.28;82.01
2397;BME280;1209;48.410;9.054;2023-05-03T12:35:19;96822.31;;;19.93;77.21
2397;BME280;1209;48.410;9.054;2023-05-03T12:37:48;96805.69;;;20.89;74.09
2397;BME280;1209;48.410;9.054;2023-05-03T12:40:14;96828.66;;;19.92;75.97
2397;BME280;1209;48.410;9.054;2023-05-03T12:42:41;96827.09;;;20.75;70.79
2397;BME280;1209;48.410;9.054;2023-05-03T12:45:07;96822.09;;;21.27;71.04
2397;BME280;1209;48.410;9.054;2023-05-03T12:47:32;96822.72;;;21.41;67.33
2397;BME280;1209;48.410;9.054;2023-05-03T12:49:58;96817.88;;;21.85;67.54
2397;BME280;1209;48.410;9.054;2023-05-03T12:52:23;96823.19;;;22.20;65.40
2397;BME280;1209;48.410;9.054;2023-05-03T12:54:49;96826.66;;;22.32;61.24
2397;BME280;1209;48.410;9.054;2023-05-03T12:57:14;96814.88;;;21.81;65.33
2397;BME280;1209;48.410;9.054;2023-05-03T12:59:40;96816.25;;;21.95;65.13
2397;BME280;1209;48.410;9.054;2023-05-03T13:02:08;96815.78;;;22.22;64.22
2397;BME280;1209;48.410;9.054;2023-05-03T13:04:33;96804.66;;;22.37;64.57
2397;BME280;1209;48.410;9.054;2023-05-03T13:06:59;96809.53;;;21.69;62.53
2397;BME280;1209;48.410;9.054;2023-05-03T13:09:25;96794.63;;;21.57;61.47
2397;BME280;1209;48.410;9.054;2023-05-03T13:11:50;96797.97;;;21.64;60.87
2397;BME280;1209;48.410;9.054;2023-05-03T13:14:17;96805.38;;;22.32;57.04
2397;BME280;1209;48.410;9.054;2023-05-03T13:16:42;96794.22;;;22.47;58.83
2397;BME280;1209;48.410;9.054;2023-05-03T13:19:10;96786.88;;;22.14;59.38
2397;BME280;1209;48.410;9.054;2023-05-03T13:21:35;96788.16;;;21.88;58.94
2397;BME280;1209;48.410;9.054;2023-05-03T13:24:00;96783.78;;;21.05;65.09
2397;BME280;1209;48.410;9.054;2023-05-03T13:26:26;96780.53;;;20.25;68.26
2397;BME280;1209;48.410;9.054;2023-05-03T13:28:51;96780.31;;;20.26;67.71
2397;BME280;1209;48.410;9.054;2023-05-03T13:31:16;96786.09;;;21.01;65.96